Time;durP1;ratioP1;P1;durP2;ratioP2;P2;SDS_P1;SDS_P2;PMS_P1;PMS_P2;Temp;Humidity;BMP_temperature;BMP_pressure;BME280_temperature;BME280_humidity;BME280_pressure;Samples;Min_cycle;Max_cycle;Signal;HPM_P1;HPM_P2
2023/05/24 00:01:55;;;;;;;30.73;8.40;;;;;;;;;;5059047;28;20514;-85
2023/05/24 00:04:21;;;;;;;34.85;8.98;;;;;;;;;;5053524;28;20218;-86
2023/05/24 00:06:47;;;;;;;33.78;7.88;;;;;;;;;;5055305;28;20139;-85
2023/05/24 00:09:14;;;;;;;32.38;8.35;;;;;;;;;;5058731;28;20147;-86
2023/05/24 00:11:40;;;;;;;39.45;8.43;;;;;;;;;;5044606;28;20047;-83
2023/05/24 00:14:06;;;;;;;34.88;8.77;;;;;;;;;;5067244;28;20418;-84
2023/05/24 00:16:32;;;;;;;36.75;8.48;;;;;;;;;;5059104;28;20784;-85
2023/05/24 00:18:58;;;;;;;37.45;8.88;;;;;;;;;;5061143;28;20052;-82
2023/05/24 00:21:24;;;;;;;34.92;9.73;;;;;;;;;;5046352;28;20051;-86
2023/05/24 00:23:50;;;;;;;33.72;8.88;;;;;;;;;;5033012;28;20048;-88
2023/05/24 00:26:16;;;;;;;38.33;9.10;;;;;;;;;;5044984;28;20110;-82
2023/05/24 00:28:42;;;;;;;37.70;8.43;;;;;;;;;;5061907;28;20240;-86
2023/05/24 00:31:08;;;;;;;34.05;9.10;;;;;;;;;;5044509;28;20775;-80
2023/05/24 00:33:35;;;;;;;33.42;9.15;;;;;;;;;;5045073;28;20045;-83
2023/05/24 00:36:01;;;;;;;36.92;8.55;;;;;;;;;;5052315;28;20032;-82
2023/05/24 00:38:27;;;;;;;43.28;9.80;;;;;;;;;;5068867;28;20037;-79
2023/05/24 00:40:59;;;;;;;34.00;8.20;;;;;;;;;;5043987;28;20848;-84
2023/05/24 00:43:25;;;;;;;37.20;9.13;;;;;;;;;;5061099;28;20040;-83
2023/05/24 00:46:03;;;;;;;41.30;8.85;;;;;;;;;;5039182;28;20053;-85
2023/05/24 00:48:29;;;;;;;40.85;9.27;;;;;;;;;;5045070;28;20451;-85
2023/05/24 00:50:56;;;;;;;37.67;9.80;;;;;;;;;;5042887;28;20079;-85
2023/05/24 00:53:22;;;;;;;33.10;8.63;;;;;;;;;;5058351;28;20280;-81
2023/05/24 00:55:48;;;;;;;42.92;9.43;;;;;;;;;;5042504;28;20564;-87
2023/05/24 00:58:15;;;;;;;38.15;8.90;;;;;;;;;;5055443;28;20056;-84
2023/05/24 01:00:42;;;;;;;41.08;9.43;;;;;;;;;;5053316;28;20043;-82
2023/05/24 01:03:09;;;;;;;39.95;9.75;;;;;;;;;;5061074;28;20511;-79
2023/05/24 01:05:35;;;;;;;32.72;8.90;;;;;;;;;;5049983;28;20033;-85
2023/05/24 01:08:06;;;;;;;40.15;9.00;;;;;;;;;;5053038;28;20612;-84
2023/05/24 01:10:38;;;;;;;39.47;9.25;;;;;;;;;;5060922;28;20072;-86
2023/05/24 01:13:10;;;;;;;42.13;9.70;;;;;;;;;;5048619;28;20173;-86
2023/05/24 01:15:59;;;;;;;41.08;9.85;;;;;;;;;;5038749;28;20051;-83
2023/05/24 01:18:31;;;;;;;37.70;9.38;;;;;;;;;;5053757;28;20511;-84
2023/05/24 01:21:16;;;;;;;38.28;8.95;;;;;;;;;;5036437;28;20037;-81
2023/05/24 01:23:45;;;;;;;37.25;9.75;;;;;;;;;;5043698;28;20047;-83
2023/05/24 01:26:18;;;;;;;39.08;10.20;;;;;;;;;;5058956;28;20063;-82
2023/05/24 01:28:45;;;;;;;40.17;9.38;;;;;;;;;;5047603;28;20048;-83
2023/05/24 01:31:12;;;;;;;42.08;9.43;;;;;;;;;;5060442;28;20072;-79
2023/05/24 01:33:42;;;;;;;38.00;9.07;;;;;;;;;;5048338;28;20076;-86
2023/05/24 01:36:08;;;;;;;28.58;8.05;;;;;;;;;;5064860;28;20666;-86
2023/05/24 01:38:34;;;;;;;36.75;8.70;;;;;;;;;;5046709;28;20054;-87
2023/05/24 01:41:06;;;;;;;35.47;9.25;;;;;;;;;;5044903;28;20041;-80
2023/05/24 01:43:32;;;;;;;43.38;8.88;;;;;;;;;;5045212;28;20477;-85
2023/05/24 01:46:01;;;;;;;28.27;8.02;;;;;;;;;;5055515;28;20044;-84
2023/05/24 01:48:31;;;;;;;42.42;8.55;;;;;;;;;;5052626;28;21367;-84
2023/05/24 01:50:58;;;;;;;35.50;8.73;;;;;;;;;;5042782;28;20040;-85
2023/05/24 01:53:26;;;;;;;35.38;8.45;;;;;;;;;;5046269;28;20514;-88
2023/05/24 01:55:55;;;;;;;37.55;9.82;;;;;;;;;;5060827;28;20329;-79
2023/05/24 01:58:20;;;;;;;;;;;;;;;;;;5064697;28;20541;-79
2023/05/24 02:00:47;;;;;;;38.58;8.40;;;;;;;;;;5045782;28;19978;-81
2023/05/24 02:03:14;;;;;;;35.08;8.50;;;;;;;;;;5064152;28;20487;-79
2023/05/24 02:05:40;;;;;;;40.90;8.73;;;;;;;;;;5061767;28;20047;-85
2023/05/24 02:08:07;;;;;;;37.63;8.95;;;;;;;;;;5063982;28;20059;-83
2023/05/24 02:10:33;;;;;;;37.65;9.07;;;;;;;;;;5046661;28;20060;-85
2023/05/24 02:12:59;;;;;;;33.28;8.15;;;;;;;;;;5063402;28;20123;-82
2023/05/24 02:15:29;;;;;;;40.05;8.93;;;;;;;;;;5063729;28;20050;-80
2023/05/24 02:17:55;;;;;;;29.17;8.13;;;;;;;;;;5050645;28;20056;-84
2023/05/24 02:20:24;;;;;;;41.55;8.60;;;;;;;;;;5057400;28;21692;-78
2023/05/24 02:22:50;;;;;;;33.78;8.43;;;;;;;;;;5066770;28;20484;-82
2023/05/24 02:25:16;;;;;;;30.13;7.93;;;;;;;;;;5061789;28;20048;-81
2023/05/24 02:27:45;;;;;;;38.90;9.00;;;;;;;;;;5065221;28;20081;-81
2023/05/24 02:30:12;;;;;;;41.17;9.55;;;;;;;;;;5057536;28;20530;-80
2023/05/24 02:32:38;;;;;;;37.05;8.52;;;;;;;;;;5062502;28;20135;-82
2023/05/24 02:35:04;;;;;;;37.53;9.30;;;;;;;;;;5064834;28;20124;-81
2023/05/24 02:37:30;;;;;;;36.25;9.45;;;;;;;;;;5056942;28;20100;-84
2023/05/24 02:39:56;;;;;;;32.17;8.30;;;;;;;;;;5073623;28;20075;-80
2023/05/24 02:42:23;;;;;;;34.95;8.20;;;;;;;;;;5054474;28;20123;-78
2023/05/24 02:44:51;;;;;;;42.25;9.27;;;;;;;;;;5050443;28;20551;-84
2023/05/24 02:47:17;;;;;;;36.85;9.60;;;;;;;;;;5053652;28;20049;-86
2023/05/24 02:49:43;;;;;;;38.85;8.30;;;;;;;;;;5049207;28;20039;-82
2023/05/24 02:52:10;;;;;;;35.05;8.77;;;;;;;;;;5045854;28;20131;-82
2023/05/24 02:54:35;;;;;;;32.38;8.25;;;;;;;;;;5053488;28;20131;-80
2023/05/24 02:57:02;;;;;;;37.83;9.25;;;;;;;;;;5065842;28;20480;-87
2023/05/24 02:59:28;;;;;;;29.42;8.70;;;;;;;;;;5065331;28;20092;-85
2023/05/24 03:01:54;;;;;;;35.35;8.93;;;;;;;;;;5073864;28;20131;-84
2023/05/24 03:04:20;;;;;;;35.75;8.52;;;;;;;;;;5047685;28;20051;-78
2023/05/24 03:06:46;;;;;;;33.15;8.90;;;;;;;;;;5057754;28;20046;-85
2023/05/24 03:09:12;;;;;;;27.95;8.02;;;;;;;;;;5065605;28;20072;-84
2023/05/24 03:11:38;;;;;;;33.10;7.10;;;;;;;;;;5059182;28;20136;-83
2023/05/24 03:14:05;;;;;;;37.72;8.10;;;;;;;;;;5057758;28;20039;-81
2023/05/24 03:16:31;;;;;;;31.70;7.95;;;;;;;;;;5059669;28;20048;-85
2023/05/24 03:18:58;;;;;;;30.75;8.77;;;;;;;;;;5045512;28;20500;-85
2023/05/24 03:21:25;;;;;;;35.55;8.52;;;;;;;;;;5047011;28;20048;-87
2023/05/24 03:23:51;;;;;;;30.98;7.45;;;;;;;;;;5037680;28;20591;-81
2023/05/24 03:26:20;;;;;;;32.92;8.50;;;;;;;;;;5045571;28;20043;-85
2023/05/24 03:28:46;;;;;;;32.83;7.25;;;;;;;;;;5062219;28;20040;-86
2023/05/24 03:31:13;;;;;;;33.05;7.75;;;;;;;;;;5044526;28;20159;-86
2023/05/24 03:33:39;;;;;;;26.88;7.03;;;;;;;;;;5039463;28;20037;-82
2023/05/24 03:36:05;;;;;;;30.70;7.38;;;;;;;;;;5045453;28;20041;-85
2023/05/24 03:38:32;;;;;;;30.58;7.15;;;;;;;;;;5046345;28;20037;-84
2023/05/24 03:40:58;;;;;;;32.90;8.52;;;;;;;;;;5043735;28;20521;-87
2023/05/24 03:43:24;;;;;;;31.70;7.72;;;;;;;;;;5062272;28;20813;-85
2023/05/24 03:45:51;;;;;;;32.90;7.65;;;;;;;;;;5044074;28;20654;-83
2023/05/24 03:48:19;;;;;;;31.38;7.85;;;;;;;;;;5060860;28;20140;-81
2023/05/24 03:50:45;;;;;;;32.35;8.52;;;;;;;;;;5065561;28;20071;-83
2023/05/24 03:53:31;;;;;;;36.92;7.63;;;;;;;;;;5067681;28;20052;-88
2023/05/24 03:56:00;;;;;;;29.23;7.90;;;;;;;;;;5053311;28;20562;-78
2023/05/24 03:58:26;;;;;;;30.90;7.80;;;;;;;;;;5034450;28;20040;-82
2023/05/24 04:00:52;;;;;;;31.58;7.60;;;;;;;;;;5056475;28;20041;-84
2023/05/24 04:03:18;;;;;;;33.97;7.47;;;;;;;;;;5062879;28;20060;-88
2023/05/24 04:05:45;;;;;;;28.27;8.13;;;;;;;;;;5042842;28;20102;-87
2023/05/24 04:08:11;;;;;;;26.17;7.00;;;;;;;;;;5059102;28;20618;-87
2023/05/24 04:10:37;;;;;;;36.17;8.05;;;;;;;;;;5058705;28;20075;-80
2023/05/24 04:13:03;;;;;;;32.28;7.18;;;;;;;;;;5041959;28;20063;-88
2023/05/24 04:15:30;;;;;;;29.42;7.25;;;;;;;;;;5051932;28;20419;-87
2023/05/24 04:17:56;;;;;;;32.38;7.95;;;;;;;;;;5038703;28;20052;-85
2023/05/24 04:20:26;;;;;;;28.88;6.82;;;;;;;;;;5077854;28;20131;-81
2023/05/24 04:22:53;;;;;;;28.98;7.10;;;;;;;;;;5058351;28;21136;-86
2023/05/24 04:25:19;;;;;;;33.25;7.13;;;;;;;;;;5060020;28;20051;-82
2023/05/24 04:27:47;;;;;;;32.65;6.95;;;;;;;;;;5047814;28;20527;-83
2023/05/24 04:30:14;;;;;;;27.75;6.82;;;;;;;;;;5065847;28;20060;-85
2023/05/24 04:32:43;;;;;;;27.65;6.70;;;;;;;;;;5045883;28;20657;-84
2023/05/24 04:35:09;;;;;;;27.33;6.53;;;;;;;;;;5056106;28;20052;-83
2023/05/24 04:37:35;;;;;;;25.88;6.38;;;;;;;;;;5042322;28;20040;-84
2023/05/24 04:40:03;;;;;;;32.20;6.93;;;;;;;;;;5054429;28;20056;-86
2023/05/24 04:42:31;;;;;;;30.17;6.13;;;;;;;;;;5049804;28;20041;-86
2023/05/24 04:44:58;;;;;;;31.52;6.72;;;;;;;;;;5060876;28;20037;-84
2023/05/24 04:47:24;;;;;;;27.83;6.70;;;;;;;;;;5059217;28;20043;-86
2023/05/24 04:49:50;;;;;;;28.52;6.43;;;;;;;;;;5059172;28;20131;-85
2023/05/24 04:52:17;;;;;;;27.83;6.50;;;;;;;;;;5059198;28;20523;-85
2023/05/24 04:54:43;;;;;;;24.65;6.18;;;;;;;;;;5045001;28;20562;-84
2023/05/24 04:57:09;;;;;;;21.45;5.95;;;;;;;;;;5058524;28;20112;-80
2023/05/24 04:59:35;;;;;;;23.73;6.22;;;;;;;;;;5051080;28;20120;-85
2023/05/24 05:02:01;;;;;;;26.02;6.00;;;;;;;;;;5045570;28;20658;-85
2023/05/24 05:04:42;;;;;;;26.55;6.60;;;;;;;;;;5103569;27;20998;-81
2023/05/24 05:07:08;;;;;;;26.42;5.95;;;;;;;;;;5082284;28;20169;-84
2023/05/24 05:09:34;;;;;;;26.35;6.30;;;;;;;;;;5076564;28;20056;-86
2023/05/24 05:12:01;;;;;;;35.38;7.03;;;;;;;;;;5079529;28;20052;-82
2023/05/24 05:14:28;;;;;;;20.60;5.30;;;;;;;;;;5063596;28;20131;-84
2023/05/24 05:16:54;;;;;;;25.83;6.78;;;;;;;;;;5076551;28;20047;-87
2023/05/24 05:19:20;;;;;;;27.17;6.15;;;;;;;;;;5084724;28;20512;-86
2023/05/24 05:21:46;;;;;;;26.58;5.90;;;;;;;;;;5065077;28;20051;-83
2023/05/24 05:24:12;;;;;;;25.63;5.68;;;;;;;;;;5081001;28;20131;-82
2023/05/24 05:26:38;;;;;;;32.50;6.55;;;;;;;;;;5043658;28;20206;-81
2023/05/24 05:29:04;;;;;;;28.88;6.13;;;;;;;;;;5059006;28;20119;-78
2023/05/24 05:31:30;;;;;;;26.02;6.45;;;;;;;;;;5060877;28;20052;-88
2023/05/24 05:33:56;;;;;;;23.80;5.80;;;;;;;;;;5075335;28;20036;-80
2023/05/24 05:36:22;;;;;;;28.27;5.78;;;;;;;;;;5080813;28;20475;-81
2023/05/24 05:38:48;;;;;;;29.33;5.97;;;;;;;;;;5080109;28;20138;-86
2023/05/24 05:41:14;;;;;;;27.15;6.63;;;;;;;;;;5077616;28;20049;-82
2023/05/24 05:43:40;;;;;;;28.23;5.55;;;;;;;;;;5076008;28;20093;-80
2023/05/24 05:46:06;;;;;;;29.63;5.97;;;;;;;;;;5058710;28;20453;-84
2023/05/24 05:48:32;;;;;;;25.90;5.82;;;;;;;;;;5079092;28;20492;-86
2023/05/24 05:50:58;;;;;;;26.80;6.03;;;;;;;;;;5053036;28;20047;-86
2023/05/24 05:53:24;;;;;;;27.13;5.45;;;;;;;;;;5072748;28;20037;-83
2023/05/24 05:55:50;;;;;;;24.65;5.22;;;;;;;;;;5075453;28;20041;-85
2023/05/24 05:58:16;;;;;;;23.63;5.47;;;;;;;;;;5075395;28;20125;-83
2023/05/24 06:00:42;;;;;;;23.42;5.65;;;;;;;;;;5084155;28;20075;-82
2023/05/24 06:03:08;;;;;;;25.98;5.60;;;;;;;;;;5089052;28;20523;-87
2023/05/24 06:05:34;;;;;;;25.63;5.75;;;;;;;;;;5079287;28;20082;-86
2023/05/24 06:08:00;;;;;;;28.05;5.60;;;;;;;;;;5076419;28;20051;-89
2023/05/24 06:10:26;;;;;;;24.23;5.07;;;;;;;;;;5069593;28;20048;-84
2023/05/24 06:12:52;;;;;;;31.25;5.95;;;;;;;;;;5063130;28;20369;-81
2023/05/24 06:15:21;;;;;;;24.10;5.32;;;;;;;;;;5067403;28;20266;-84
2023/05/24 06:17:47;;;;;;;23.85;5.50;;;;;;;;;;5065039;28;20586;-81
2023/05/24 06:20:15;;;;;;;26.35;5.90;;;;;;;;;;5063458;28;20051;-87
2023/05/24 06:22:41;;;;;;;26.27;5.43;;;;;;;;;;5065154;28;20116;-85
2023/05/24 06:25:08;;;;;;;20.90;5.55;;;;;;;;;;5062473;28;20139;-79
2023/05/24 06:27:34;;;;;;;22.83;5.30;;;;;;;;;;5063260;28;20086;-80
2023/05/24 06:30:00;;;;;;;24.83;5.43;;;;;;;;;;5080313;28;20071;-85
2023/05/24 06:32:26;;;;;;;27.85;5.35;;;;;;;;;;5054850;28;20590;-82
2023/05/24 06:34:52;;;;;;;24.02;5.95;;;;;;;;;;5049872;28;20044;-87
2023/05/24 06:37:18;;;;;;;28.70;5.90;;;;;;;;;;5063045;28;20044;-87
2023/05/24 06:39:44;;;;;;;23.58;5.32;;;;;;;;;;5067126;28;20127;-83
2023/05/24 06:42:10;;;;;;;23.13;5.45;;;;;;;;;;5043398;28;20079;-82
2023/05/24 06:44:36;;;;;;;25.60;5.55;;;;;;;;;;5059669;28;20087;-80
2023/05/24 06:47:02;;;;;;;23.95;5.15;;;;;;;;;;5066690;28;20041;-81
2023/05/24 06:49:28;;;;;;;28.42;5.50;;;;;;;;;;5061410;28;20040;-85
2023/05/24 06:51:55;;;;;;;22.60;5.03;;;;;;;;;;5065498;28;20429;-87
2023/05/24 06:54:21;;;;;;;22.60;5.20;;;;;;;;;;5078371;28;20055;-82
2023/05/24 06:56:47;;;;;;;20.65;4.35;;;;;;;;;;5043007;28;20049;-83
2023/05/24 06:59:13;;;;;;;18.38;4.28;;;;;;;;;;5064349;28;20481;-82
2023/05/24 07:01:41;;;;;;;18.05;4.20;;;;;;;;;;5061619;28;20123;-80
2023/05/24 07:04:08;;;;;;;19.13;4.78;;;;;;;;;;5067268;28;20082;-81
2023/05/24 07:06:34;;;;;;;17.67;4.20;;;;;;;;;;5056158;28;20053;-86
2023/05/24 07:09:03;;;;;;;19.10;4.18;;;;;;;;;;5062550;28;20085;-82
2023/05/24 07:11:29;;;;;;;20.05;4.88;;;;;;;;;;5063075;28;20028;-84
2023/05/24 07:13:56;;;;;;;15.23;3.90;;;;;;;;;;5047660;28;20127;-81
2023/05/24 07:16:28;;;;;;;17.63;4.20;;;;;;;;;;5077512;28;20076;-85
2023/05/24 07:18:57;;;;;;;18.73;4.15;;;;;;;;;;5058553;28;20091;-81
2023/05/24 07:21:23;;;;;;;14.88;3.90;;;;;;;;;;5069250;28;20056;-82
2023/05/24 07:23:52;;;;;;;14.75;3.83;;;;;;;;;;5065129;28;20610;-82
2023/05/24 07:26:18;;;;;;;18.75;4.53;;;;;;;;;;5049546;28;20128;-84
2023/05/24 07:28:44;;;;;;;13.15;3.70;;;;;;;;;;5052753;28;20140;-82
2023/05/24 07:31:10;;;;;;;16.80;4.35;;;;;;;;;;5043878;28;20522;-82
2023/05/24 07:33:37;;;;;;;16.75;3.70;;;;;;;;;;5065483;28;20048;-82
2023/05/24 07:36:03;;;;;;;11.43;3.30;;;;;;;;;;5078889;28;20083;-82
2023/05/24 07:38:30;;;;;;;16.17;4.10;;;;;;;;;;5062756;28;20052;-82
2023/05/24 07:40:58;;;;;;;18.35;4.10;;;;;;;;;;5063974;28;20045;-83
2023/05/24 07:43:25;;;;;;;15.68;3.40;;;;;;;;;;5055176;28;20178;-85
2023/05/24 07:45:51;;;;;;;15.45;3.83;;;;;;;;;;5069391;28;20040;-90
2023/05/24 07:48:18;;;;;;;15.00;3.50;;;;;;;;;;5068837;28;20720;-89
2023/05/24 07:50:47;;;;;;;14.15;3.70;;;;;;;;;;5059882;28;20100;-89
2023/05/24 07:53:13;;;;;;;15.07;3.80;;;;;;;;;;5071828;28;20040;-84
2023/05/24 07:55:39;;;;;;;16.17;3.60;;;;;;;;;;5051821;28;20063;-91
2023/05/24 07:58:06;;;;;;;15.75;3.92;;;;;;;;;;5062377;28;20605;-84
2023/05/24 08:00:33;;;;;;;21.63;4.57;;;;;;;;;;5048719;28;20479;-90
2023/05/24 08:02:59;;;;;;;13.18;3.72;;;;;;;;;;5071172;28;20603;-80
2023/05/24 08:05:25;;;;;;;18.63;4.13;;;;;;;;;;5052130;28;20776;-86
2023/05/24 08:07:52;;;;;;;14.82;3.85;;;;;;;;;;5073454;28;20051;-89
2023/05/24 08:10:18;;;;;;;17.33;3.83;;;;;;;;;;5057671;28;20044;-84
2023/05/24 08:12:44;;;;;;;17.40;4.13;;;;;;;;;;5068979;28;20067;-80
2023/05/24 08:15:11;;;;;;;15.50;3.53;;;;;;;;;;5074513;28;20063;-90
2023/05/24 08:17:40;;;;;;;14.63;3.72;;;;;;;;;;5051485;28;20132;-89
2023/05/24 08:20:12;;;;;;;19.33;3.83;;;;;;;;;;5080786;28;20088;-92
2023/05/24 08:22:38;;;;;;;12.27;3.42;;;;;;;;;;5069967;28;20225;-90
2023/05/24 08:25:05;;;;;;;16.30;3.53;;;;;;;;;;5087069;28;20036;-85
2023/05/24 08:27:31;;;;;;;15.85;4.30;;;;;;;;;;5066455;28;20044;-87
2023/05/24 08:29:58;;;;;;;22.55;4.93;;;;;;;;;;5070957;28;20086;-84
2023/05/24 08:32:24;;;;;;;14.52;3.75;;;;;;;;;;5074146;28;20658;-90
2023/05/24 08:34:51;;;;;;;19.33;4.45;;;;;;;;;;5056360;28;20058;-90
2023/05/24 08:37:21;;;;;;;15.85;3.88;;;;;;;;;;5078226;28;20037;-84
2023/05/24 08:39:47;;;;;;;14.63;4.00;;;;;;;;;;5051347;28;20051;-86
2023/05/24 08:42:13;;;;;;;12.15;3.40;;;;;;;;;;5050646;28;20044;-77
2023/05/24 08:44:52;;;;;;;15.80;3.63;;;;;;;;;;5067260;28;20044;-77
2023/05/24 08:47:23;;;;;;;17.17;4.10;;;;;;;;;;5048705;28;20611;-85
2023/05/24 08:49:50;;;;;;;15.95;3.70;;;;;;;;;;5078934;28;20093;-79
2023/05/24 08:52:18;;;;;;;13.80;3.95;;;;;;;;;;5069835;28;20036;-89
2023/05/24 08:54:45;;;;;;;12.30;3.57;;;;;;;;;;5071765;28;20155;-85
2023/05/24 08:57:11;;;;;;;12.60;3.30;;;;;;;;;;5078199;28;20033;-85
2023/05/24 08:59:39;;;;;;;13.57;3.00;;;;;;;;;;5066359;28;20123;-83
2023/05/24 09:02:06;;;;;;;11.20;3.42;;;;;;;;;;5073805;28;20037;-79
2023/05/24 09:04:33;;;;;;;12.43;3.40;;;;;;;;;;5069916;28;20053;-85
2023/05/24 09:06:59;;;;;;;11.70;3.28;;;;;;;;;;5081539;28;20044;-79
2023/05/24 09:09:27;;;;;;;9.23;3.20;;;;;;;;;;5074001;28;20797;-85
2023/05/24 09:11:54;;;;;;;12.30;3.35;;;;;;;;;;5071076;28;20044;-84
2023/05/24 09:14:20;;;;;;;11.85;3.08;;;;;;;;;;5067139;28;20509;-79
2023/05/24 09:16:46;;;;;;;11.00;2.80;;;;;;;;;;5051007;28;20728;-79
2023/05/24 09:19:13;;;;;;;8.10;2.45;;;;;;;;;;5079476;28;20579;-77
2023/05/24 09:21:39;;;;;;;12.65;3.38;;;;;;;;;;5070040;28;20044;-83
2023/05/24 09:24:08;;;;;;;15.40;3.33;;;;;;;;;;5076081;28;20050;-76
2023/05/24 09:26:36;;;;;;;11.82;2.90;;;;;;;;;;5070742;28;20072;-89
2023/05/24 09:29:06;;;;;;;13.65;3.38;;;;;;;;;;5072101;28;20047;-81
2023/05/24 09:31:36;;;;;;;11.10;2.97;;;;;;;;;;5075391;28;20812;-82
2023/05/24 09:34:02;;;;;;;12.02;3.08;;;;;;;;;;5060965;28;20028;-89
2023/05/24 09:36:35;;;;;;;14.18;3.60;;;;;;;;;;5071005;28;20399;-88
2023/05/24 09:39:08;;;;;;;9.75;3.17;;;;;;;;;;5055081;28;20036;-78
2023/05/24 09:41:35;;;;;;;18.42;3.40;;;;;;;;;;5059810;28;20127;-81
2023/05/24 09:44:02;;;;;;;12.40;3.30;;;;;;;;;;5054156;28;20055;-78
2023/05/24 09:46:28;;;;;;;12.63;3.63;;;;;;;;;;5072730;28;20047;-87
2023/05/24 09:48:57;;;;;;;12.50;3.60;;;;;;;;;;5071945;28;20046;-77
2023/05/24 09:51:23;;;;;;;14.43;3.38;;;;;;;;;;5072378;28;20040;-83
2023/05/24 09:53:51;;;;;;;20.90;4.35;;;;;;;;;;5060434;28;20063;-77
2023/05/24 09:56:18;;;;;;;13.55;4.13;;;;;;;;;;5065501;28;20044;-84
2023/05/24 09:58:44;;;;;;;13.43;3.40;;;;;;;;;;5077383;28;20051;-83
2023/05/24 10:01:13;;;;;;;12.32;3.78;;;;;;;;;;5071149;28;20498;-80
2023/05/24 10:03:51;;;;;;;11.93;3.13;;;;;;;;;;5058546;28;20086;-76
2023/05/24 10:06:17;;;;;;;15.48;4.18;;;;;;;;;;5071439;28;20040;-75
2023/05/24 10:08:43;;;;;;;16.75;3.78;;;;;;;;;;5074362;28;20052;-80
2023/05/24 10:11:09;;;;;;;14.43;3.95;;;;;;;;;;5080206;28;20036;-88
2023/05/24 10:13:36;;;;;;;10.10;3.25;;;;;;;;;;5049125;28;20047;-85
2023/05/24 10:16:05;;;;;;;11.68;3.33;;;;;;;;;;5066420;28;20044;-85
2023/05/24 10:18:31;;;;;;;18.98;3.50;;;;;;;;;;5064932;28;20131;-86
2023/05/24 10:20:59;;;;;;;14.82;3.60;;;;;;;;;;5047899;28;20044;-84
2023/05/24 10:23:29;;;;;;;11.95;3.58;;;;;;;;;;5060698;28;20425;-76
2023/05/24 10:25:59;;;;;;;12.15;3.50;;;;;;;;;;5067621;28;20051;-85
2023/05/24 10:28:25;;;;;;;14.25;4.07;;;;;;;;;;5053306;28;20055;-89
2023/05/24 10:31:07;;;;;;;13.45;3.38;;;;;;;;;;5064136;28;20052;-87
2023/05/24 10:33:36;;;;;;;13.32;3.33;;;;;;;;;;5065032;28;20077;-86
2023/05/24 10:36:03;;;;;;;12.57;3.65;;;;;;;;;;5066150;28;20142;-84
2023/05/24 10:38:30;;;;;;;10.97;3.30;;;;;;;;;;5050506;28;20032;-90
2023/05/24 10:40:56;;;;;;;11.30;2.90;;;;;;;;;;5047826;28;20504;-86
2023/05/24 10:43:22;;;;;;;8.77;2.90;;;;;;;;;;5054280;28;20047;-86
2023/05/24 10:45:49;;;;;;;13.40;3.72;;;;;;;;;;5038272;28;20036;-86
2023/05/24 10:48:15;;;;;;;10.05;3.05;;;;;;;;;;5033629;28;20049;-83
2023/05/24 10:50:42;;;;;;;12.10;2.70;;;;;;;;;;5046661;28;21073;-89
2023/05/24 10:53:11;;;;;;;10.52;2.80;;;;;;;;;;5055161;28;20147;-87
2023/05/24 10:55:51;;;;;;;10.68;3.28;;;;;;;;;;5055210;28;20134;-82
2023/05/24 10:58:17;;;;;;;11.27;3.35;;;;;;;;;;5056521;28;20070;-80
2023/05/24 11:00:44;;;;;;;9.15;2.63;;;;;;;;;;5056746;28;20074;-84
2023/05/24 11:03:11;;;;;;;10.20;2.80;;;;;;;;;;5039932;28;20468;-83
2023/05/24 11:05:46;;;;;;;15.20;3.22;;;;;;;;;;5050242;28;22045;-77
2023/05/24 11:08:12;;;;;;;14.60;3.33;;;;;;;;;;5068485;28;20044;-79
2023/05/24 11:10:40;;;;;;;12.10;2.88;;;;;;;;;;5057376;28;20242;-76
2023/05/24 11:13:09;;;;;;;12.75;3.38;;;;;;;;;;5056652;28;20292;-78
2023/05/24 11:15:36;;;;;;;14.48;3.85;;;;;;;;;;5059895;28;20047;-76
2023/05/24 11:18:08;;;;;;;16.95;3.72;;;;;;;;;;5071281;28;21141;-80
2023/05/24 11:20:37;;;;;;;11.13;3.03;;;;;;;;;;5060063;28;20047;-77
2023/05/24 11:23:03;;;;;;;15.60;3.20;;;;;;;;;;5058430;28;20070;-80
2023/05/24 11:25:29;;;;;;;13.65;3.58;;;;;;;;;;5041683;28;20191;-78
2023/05/24 11:28:03;;;;;;;15.93;3.85;;;;;;;;;;5044980;28;20403;-76
2023/05/24 11:30:31;;;;;;;10.45;3.28;;;;;;;;;;5047188;28;20500;-84
2023/05/24 11:32:57;;;;;;;12.30;3.20;;;;;;;;;;5055981;28;20048;-86
2023/05/24 11:35:26;;;;;;;13.23;3.60;;;;;;;;;;5029792;28;20827;-79
2023/05/24 11:37:53;;;;;;;14.52;3.50;;;;;;;;;;5062062;28;20051;-82
2023/05/24 11:40:19;;;;;;;12.80;3.30;;;;;;;;;;5073012;28;20052;-82
2023/05/24 11:42:46;;;;;;;15.25;3.88;;;;;;;;;;5065414;28;20042;-79
2023/05/24 11:45:12;;;;;;;14.27;3.92;;;;;;;;;;5060762;28;20072;-79
2023/05/24 11:47:39;;;;;;;14.65;3.83;;;;;;;;;;5065766;28;20052;-81
2023/05/24 11:50:06;;;;;;;14.63;4.00;;;;;;;;;;5060176;28;20070;-83
2023/05/24 11:52:32;;;;;;;15.32;3.53;;;;;;;;;;5057368;28;20040;-82
2023/05/24 11:54:59;;;;;;;11.63;3.38;;;;;;;;;;5066019;28;21480;-82
2023/05/24 11:57:38;;;;;;;14.50;3.55;;;;;;;;;;5063880;28;20051;-81
2023/05/24 12:00:09;;;;;;;15.85;3.70;;;;;;;;;;5052792;28;20135;-80
2023/05/24 12:02:36;;;;;;;12.05;3.25;;;;;;;;;;5060159;28;20492;-81
2023/05/24 12:05:10;;;;;;;17.25;3.75;;;;;;;;;;5058679;28;20049;-83
2023/05/24 12:07:37;;;;;;;14.27;3.45;;;;;;;;;;5052467;28;20059;-79
2023/05/24 12:10:04;;;;;;;21.05;4.15;;;;;;;;;;5037058;28;20154;-84
2023/05/24 12:12:30;;;;;;;16.08;3.47;;;;;;;;;;5069564;28;20080;-81
2023/05/24 12:14:56;;;;;;;15.57;3.33;;;;;;;;;;5056375;28;20174;-81
2023/05/24 12:17:22;;;;;;;14.57;3.60;;;;;;;;;;5062230;28;20036;-81
2023/05/24 12:19:53;;;;;;;15.70;3.53;;;;;;;;;;5054749;28;20045;-82
2023/05/24 12:22:26;;;;;;;16.08;3.20;;;;;;;;;;5065685;28;20102;-81
2023/05/24 12:24:52;;;;;;;12.18;2.90;;;;;;;;;;5046914;28;20051;-83
2023/05/24 12:27:18;;;;;;;15.52;3.42;;;;;;;;;;5064856;28;20860;-82
2023/05/24 12:29:44;;;;;;;11.52;2.97;;;;;;;;;;5068050;28;20040;-81
2023/05/24 12:32:11;;;;;;;16.90;3.50;;;;;;;;;;5065740;28;20043;-80
2023/05/24 12:34:39;;;;;;;16.90;3.58;;;;;;;;;;5051425;28;20055;-80
2023/05/24 12:37:06;;;;;;;;;;;;;;;;;;5075745;28;20130;-79
2023/05/24 12:39:35;;;;;;;15.32;4.03;;;;;;;;;;5048471;28;20850;-81
2023/05/24 12:42:02;;;;;;;13.07;3.50;;;;;;;;;;5059977;28;20509;-79
2023/05/24 12:44:29;;;;;;;16.27;3.42;;;;;;;;;;5035661;28;20040;-83
2023/05/24 12:46:56;;;;;;;15.43;3.72;;;;;;;;;;5058021;28;20067;-79
2023/05/24 12:49:22;;;;;;;15.48;3.75;;;;;;;;;;5044117;28;20037;-79
2023/05/24 12:51:48;;;;;;;14.88;3.40;;;;;;;;;;5056191;28;20052;-80
2023/05/24 12:54:15;;;;;;;11.40;3.22;;;;;;;;;;5059135;28;20079;-83
2023/05/24 12:56:41;;;;;;;17.25;3.92;;;;;;;;;;5065141;28;20160;-84
2023/05/24 12:59:07;;;;;;;13.65;3.30;;;;;;;;;;5055617;28;20040;-81
2023/05/24 13:01:33;;;;;;;16.48;3.95;;;;;;;;;;5046332;28;20478;-86
2023/05/24 13:03:59;;;;;;;19.80;3.80;;;;;;;;;;5039685;28;20056;-90
2023/05/24 13:06:25;;;;;;;17.65;3.40;;;;;;;;;;5047240;28;20048;-85
2023/05/24 13:08:51;;;;;;;13.50;3.33;;;;;;;;;;5049428;28;20049;-88
2023/05/24 13:11:17;;;;;;;15.55;3.67;;;;;;;;;;5054766;28;21599;-88
2023/05/24 13:13:44;;;;;;;14.73;3.38;;;;;;;;;;5049993;28;20121;-90
2023/05/24 13:16:10;;;;;;;14.48;3.42;;;;;;;;;;5063028;28;20048;-89
2023/05/24 13:18:37;;;;;;;12.75;2.95;;;;;;;;;;5051212;28;20573;-89
2023/05/24 13:21:04;;;;;;;21.33;3.67;;;;;;;;;;5063342;28;20032;-81
2023/05/24 13:23:36;;;;;;;13.32;3.40;;;;;;;;;;5061920;28;20059;-80
2023/05/24 13:26:02;;;;;;;13.10;3.00;;;;;;;;;;5077538;28;20037;-85
2023/05/24 13:28:30;;;;;;;15.40;3.22;;;;;;;;;;5062783;28;20048;-86
2023/05/24 13:30:56;;;;;;;11.15;3.00;;;;;;;;;;5044526;28;20041;-82
2023/05/24 13:33:22;;;;;;;12.95;3.22;;;;;;;;;;5062566;28;20514;-84
2023/05/24 13:35:48;;;;;;;12.45;2.95;;;;;;;;;;5073952;28;20048;-80
2023/05/24 13:38:14;;;;;;;13.65;3.30;;;;;;;;;;5068405;28;20155;-88
2023/05/24 13:40:40;;;;;;;11.57;3.10;;;;;;;;;;5066161;28;20059;-85
2023/05/24 13:43:07;;;;;;;13.18;3.15;;;;;;;;;;5045931;28;20142;-92
2023/05/24 13:45:33;;;;;;;14.73;3.10;;;;;;;;;;5068214;28;20063;-88
2023/05/24 13:48:02;;;;;;;13.43;2.92;;;;;;;;;;5060381;28;20075;-80
2023/05/24 13:50:30;;;;;;;13.55;3.05;;;;;;;;;;5051215;28;20036;-81
2023/05/24 13:52:57;;;;;;;11.98;2.97;;;;;;;;;;5055868;28;20598;-80
2023/05/24 13:55:23;;;;;;;15.40;3.85;;;;;;;;;;5045825;28;20049;-78
2023/05/24 13:57:49;;;;;;;11.48;2.97;;;;;;;;;;5058927;28;20066;-81
2023/05/24 14:00:16;;;;;;;10.90;3.58;;;;;;;;;;5056800;28;20485;-87
2023/05/24 14:02:42;;;;;;;15.60;2.95;;;;;;;;;;5062362;28;20095;-79
2023/05/24 14:05:08;;;;;;;16.63;3.33;;;;;;;;;;5055128;28;20103;-81
2023/05/24 14:07:36;;;;;;;14.32;3.28;;;;;;;;;;5056398;28;20159;-78
2023/05/24 14:10:02;;;;;;;12.70;3.00;;;;;;;;;;5068332;28;20408;-88
2023/05/24 14:12:28;;;;;;;8.70;2.60;;;;;;;;;;5056513;28;20591;-86
2023/05/24 14:14:54;;;;;;;10.02;2.67;;;;;;;;;;5060456;28;20045;-88
2023/05/24 14:17:20;;;;;;;8.55;2.50;;;;;;;;;;5044174;28;20047;-78
2023/05/24 14:19:46;;;;;;;12.95;2.65;;;;;;;;;;5073988;28;20048;-78
2023/05/24 14:22:12;;;;;;;10.30;2.42;;;;;;;;;;5064183;28;20106;-83
2023/05/24 14:24:38;;;;;;;12.55;3.20;;;;;;;;;;5066442;28;20049;-86
2023/05/24 14:27:05;;;;;;;11.02;2.80;;;;;;;;;;5069411;28;20056;-85
2023/05/24 14:29:31;;;;;;;11.88;2.83;;;;;;;;;;5058419;28;20048;-80
2023/05/24 14:31:57;;;;;;;12.55;2.90;;;;;;;;;;5049167;28;20093;-87